sensor_id;sensor_type;location;lat;lon;timestamp;temperature;humidity
19261;DHT22;9764;48.114;11.670;2023-11-21T00:00:14;19.50;94.20
19261;DHT22;9764;48.114;11.670;2023-11-21T00:02:44;19.50;94.20
19261;DHT22;9764;48.114;11.670;2023-11-21T00:05:15;19.50;94.20
19261;DHT22;9764;48.114;11.670;2023-11-21T00:07:43;19.50;94.10
19261;DHT22;9764;48.114;11.670;2023-11-21T00:10:12;19.50;94.20
19261;DHT22;9764;48.114;11.670;2023-11-21T00:12:43;19.50;94.10
19261;DHT22;9764;48.114;11.670;2023-11-21T00:15:11;19.50;94.10
19261;DHT22;9764;48.114;11.670;2023-11-21T00:17:39;19.50;94.10
19261;DHT22;9764;48.114;11.670;2023-11-21T00:20:09;19.50;94.20
19261;DHT22;9764;48.114;11.670;2023-11-21T00:22:41;19.50;94.20
19261;DHT22;9764;48.114;11.670;2023-11-21T00:25:10;19.50;94.20
19261;DHT22;9764;48.114;11.670;2023-11-21T00:27:38;19.50;94.20
19261;DHT22;9764;48.114;11.670;2023-11-21T00:30:07;19.50;94.20
19261;DHT22;9764;48.114;11.670;2023-11-21T00:32:36;19.50;94.20
19261;DHT22;9764;48.114;11.670;2023-11-21T00:35:05;19.50;94.50
19261;DHT22;9764;48.114;11.670;2023-11-21T00:37:33;19.50;94.20
19261;DHT22;9764;48.114;11.670;2023-11-21T00:40:04;19.50;94.20
19261;DHT22;9764;48.114;11.670;2023-11-21T00:42:34;19.50;94.20
19261;DHT22;9764;48.114;11.670;2023-11-21T00:45:03;19.50;94.20
19261;DHT22;9764;48.114;11.670;2023-11-21T00:47:31;19.50;94.20
19261;DHT22;9764;48.114;11.670;2023-11-21T00:50:00;19.50;94.20
19261;DHT22;9764;48.114;11.670;2023-11-21T00:52:29;19.50;94.20
19261;DHT22;9764;48.114;11.670;2023-11-21T00:54:57;19.50;94.20
19261;DHT22;9764;48.114;11.670;2023-11-21T00:57:28;19.50;94.20
19261;DHT22;9764;48.114;11.670;2023-11-21T00:59:56;19.50;94.20
19261;DHT22;9764;48.114;11.670;2023-11-21T01:02:24;19.50;94.20
19261;DHT22;9764;48.114;11.670;2023-11-21T01:04:53;19.50;94.20
19261;DHT22;9764;48.114;11.670;2023-11-21T01:07:21;19.50;94.20
19261;DHT22;9764;48.114;11.670;2023-11-21T01:09:50;19.40;94.10
19261;DHT22;9764;48.114;11.670;2023-11-21T01:12:18;19.50;94.20
19261;DHT22;9764;48.114;11.670;2023-11-21T01:14:48;19.40;94.10
19261;DHT22;9764;48.114;11.670;2023-11-21T01:17:17;19.40;94.10
19261;DHT22;9764;48.114;11.670;2023-11-21T01:19:45;19.50;94.20
19261;DHT22;9764;48.114;11.670;2023-11-21T01:22:14;19.40;94.20
19261;DHT22;9764;48.114;11.670;2023-11-21T01:24:43;19.50;94.20
19261;DHT22;9764;48.114;11.670;2023-11-21T01:27:11;19.50;94.20
19261;DHT22;9764;48.114;11.670;2023-11-21T01:29:39;19.50;94.20
19261;DHT22;9764;48.114;11.670;2023-11-21T01:32:09;19.50;94.20
19261;DHT22;9764;48.114;11.670;2023-11-21T01:34:37;19.50;94.20
19261;DHT22;9764;48.114;11.670;2023-11-21T01:37:05;19.50;94.20
19261;DHT22;9764;48.114;11.670;2023-11-21T01:39:34;19.50;94.20
19261;DHT22;9764;48.114;11.670;2023-11-21T01:42:02;19.50;94.20
19261;DHT22;9764;48.114;11.670;2023-11-21T01:44:30;19.40;94.20
19261;DHT22;9764;48.114;11.670;2023-11-21T01:46:58;19.40;94.10
19261;DHT22;9764;48.114;11.670;2023-11-21T01:49:33;19.40;94.20
19261;DHT22;9764;48.114;11.670;2023-11-21T01:52:02;19.40;94.10
19261;DHT22;9764;48.114;11.670;2023-11-21T01:54:31;19.40;94.20
19261;DHT22;9764;48.114;11.670;2023-11-21T01:57:00;19.40;94.20
19261;DHT22;9764;48.114;11.670;2023-11-21T01:59:34;19.40;94.20
19261;DHT22;9764;48.114;11.670;2023-11-21T02:02:04;19.40;94.20
19261;DHT22;9764;48.114;11.670;2023-11-21T02:04:36;19.40;94.20
19261;DHT22;9764;48.114;11.670;2023-11-21T02:07:05;19.40;94.20
19261;DHT22;9764;48.114;11.670;2023-11-21T02:09:33;19.40;94.60
19261;DHT22;9764;48.114;11.670;2023-11-21T02:12:01;19.40;94.20
19261;DHT22;9764;48.114;11.670;2023-11-21T02:14:30;19.40;94.20
19261;DHT22;9764;48.114;11.670;2023-11-21T02:16:59;19.40;94.20
19261;DHT22;9764;48.114;11.670;2023-11-21T02:19:27;19.40;94.20
19261;DHT22;9764;48.114;11.670;2023-11-21T02:21:59;19.40;94.20
19261;DHT22;9764;48.114;11.670;2023-11-21T02:24:32;19.40;94.20
19261;DHT22;9764;48.114;11.670;2023-11-21T02:27:00;19.40;94.20
19261;DHT22;9764;48.114;11.670;2023-11-21T02:29:28;19.40;94.20
19261;DHT22;9764;48.114;11.670;2023-11-21T02:31:56;19.40;94.20
19261;DHT22;9764;48.114;11.670;2023-11-21T02:34:25;19.40;94.20
19261;DHT22;9764;48.114;11.670;2023-11-21T02:36:53;19.40;94.20
19261;DHT22;9764;48.114;11.670;2023-11-21T02:39:22;19.40;94.20
19261;DHT22;9764;48.114;11.670;2023-11-21T02:41:53;19.40;94.20
19261;DHT22;9764;48.114;11.670;2023-11-21T02:44:21;19.40;94.20
19261;DHT22;9764;48.114;11.670;2023-11-21T02:46:49;19.40;94.20
19261;DHT22;9764;48.114;11.670;2023-11-21T02:49:17;19.40;94.20
19261;DHT22;9764;48.114;11.670;2023-11-21T02:51:46;19.40;94.20
19261;DHT22;9764;48.114;11.670;2023-11-21T02:54:14;19.40;94.20
19261;DHT22;9764;48.114;11.670;2023-11-21T02:56:46;19.40;94.20
19261;DHT22;9764;48.114;11.670;2023-11-21T02:59:15;19.40;94.30
19261;DHT22;9764;48.114;11.670;2023-11-21T03:01:43;19.30;94.20
19261;DHT22;9764;48.114;11.670;2023-11-21T03:04:12;19.40;94.20
19261;DHT22;9764;48.114;11.670;2023-11-21T03:06:44;19.40;94.20
19261;DHT22;9764;48.114;11.670;2023-11-21T03:09:12;19.30;94.20
19261;DHT22;9764;48.114;11.670;2023-11-21T03:11:40;19.40;94.20
19261;DHT22;9764;48.114;11.670;2023-11-21T03:14:09;19.30;94.20
19261;DHT22;9764;48.114;11.670;2023-11-21T03:16:39;19.30;94.20
19261;DHT22;9764;48.114;11.670;2023-11-21T03:19:08;19.30;94.20
19261;DHT22;9764;48.114;11.670;2023-11-21T03:21:37;19.30;94.20
19261;DHT22;9764;48.114;11.670;2023-11-21T03:24:06;19.30;94.20
19261;DHT22;9764;48.114;11.670;2023-11-21T03:26:34;19.30;94.20
19261;DHT22;9764;48.114;11.670;2023-11-21T03:29:04;19.40;94.20
19261;DHT22;9764;48.114;11.670;2023-11-21T03:31:32;19.30;94.20
19261;DHT22;9764;48.114;11.670;2023-11-21T03:34:02;19.30;94.20
19261;DHT22;9764;48.114;11.670;2023-11-21T03:36:30;19.30;94.20
19261;DHT22;9764;48.114;11.670;2023-11-21T03:38:58;19.30;94.20
19261;DHT22;9764;48.114;11.670;2023-11-21T03:41:27;19.30;94.30
19261;DHT22;9764;48.114;11.670;2023-11-21T03:43:55;19.30;94.20
19261;DHT22;9764;48.114;11.670;2023-11-21T03:46:24;19.30;94.30
19261;DHT22;9764;48.114;11.670;2023-11-21T03:48:52;19.30;94.30
19261;DHT22;9764;48.114;11.670;2023-11-21T03:51:23;19.30;94.30
19261;DHT22;9764;48.114;11.670;2023-11-21T03:53:52;19.30;94.20
19261;DHT22;9764;48.114;11.670;2023-11-21T03:56:20;19.30;94.20
19261;DHT22;9764;48.114;11.670;2023-11-21T03:58:49;19.30;94.30
19261;DHT22;9764;48.114;11.670;2023-11-21T04:01:21;19.30;94.30
19261;DHT22;9764;48.114;11.670;2023-11-21T04:03:50;19.30;94.30
19261;DHT22;9764;48.114;11.670;2023-11-21T04:06:18;19.30;94.30
19261;DHT22;9764;48.114;11.670;2023-11-21T04:08:48;19.30;94.40
19261;DHT22;9764;48.114;11.670;2023-11-21T04:11:16;19.30;94.30
19261;DHT22;9764;48.114;11.670;2023-11-21T04:13:44;19.30;94.40
19261;DHT22;9764;48.114;11.670;2023-11-21T04:16:13;19.30;94.30
19261;DHT22;9764;48.114;11.670;2023-11-21T04:18:42;19.30;94.40
19261;DHT22;9764;48.114;11.670;2023-11-21T04:21:10;19.30;94.30
19261;DHT22;9764;48.114;11.670;2023-11-21T04:23:39;19.30;94.40
19261;DHT22;9764;48.114;11.670;2023-11-21T04:26:09;19.30;94.40
19261;DHT22;9764;48.114;11.670;2023-11-21T04:28:37;19.30;94.50
19261;DHT22;9764;48.114;11.670;2023-11-21T04:31:06;19.30;94.40
19261;DHT22;9764;48.114;11.670;2023-11-21T04:33:34;19.30;94.40
19261;DHT22;9764;48.114;11.670;2023-11-21T04:36:02;19.30;94.40
19261;DHT22;9764;48.114;11.670;2023-11-21T04:38:30;19.30;94.70
19261;DHT22;9764;48.114;11.670;2023-11-21T04:41:00;19.30;94.50
19261;DHT22;9764;48.114;11.670;2023-11-21T04:43:31;19.30;94.40
19261;DHT22;9764;48.114;11.670;2023-11-21T04:45:59;19.30;94.40
19261;DHT22;9764;48.114;11.670;2023-11-21T04:48:29;19.30;94.40
19261;DHT22;9764;48.114;11.670;2023-11-21T04:50:57;19.30;94.40
19261;DHT22;9764;48.114;11.670;2023-11-21T04:53:26;19.30;94.50
19261;DHT22;9764;48.114;11.670;2023-11-21T04:55:54;19.30;94.50
19261;DHT22;9764;48.114;11.670;2023-11-21T04:58:22;19.30;94.40
19261;DHT22;9764;48.114;11.670;2023-11-21T05:00:52;19.30;94.50
19261;DHT22;9764;48.114;11.670;2023-11-21T05:03:20;19.30;94.40
19261;DHT22;9764;48.114;11.670;2023-11-21T05:05:51;19.30;94.50
19261;DHT22;9764;48.114;11.670;2023-11-21T05:08:19;19.30;94.60
19261;DHT22;9764;48.114;11.670;2023-11-21T05:10:49;19.30;94.50
19261;DHT22;9764;48.114;11.670;2023-11-21T05:13:18;19.30;94.60
19261;DHT22;9764;48.114;11.670;2023-11-21T05:15:47;19.30;94.50
19261;DHT22;9764;48.114;11.670;2023-11-21T05:18:16;19.30;94.40
19261;DHT22;9764;48.114;11.670;2023-11-21T05:20:44;19.30;94.50
19261;DHT22;9764;48.114;11.670;2023-11-21T05:23:14;19.30;94.50
19261;DHT22;9764;48.114;11.670;2023-11-21T05:25:42;19.30;94.50
19261;DHT22;9764;48.114;11.670;2023-11-21T05:28:11;19.30;94.50
19261;DHT22;9764;48.114;11.670;2023-11-21T05:30:39;19.30;94.50
19261;DHT22;9764;48.114;11.670;2023-11-21T05:33:07;19.40;94.50
19261;DHT22;9764;48.114;11.670;2023-11-21T05:35:37;19.30;94.40
19261;DHT22;9764;48.114;11.670;2023-11-21T05:38:05;19.40;94.40
19261;DHT22;9764;48.114;11.670;2023-11-21T05:40:33;19.40;94.40
19261;DHT22;9764;48.114;11.670;2023-11-21T05:43:02;19.30;94.40
19261;DHT22;9764;48.114;11.670;2023-11-21T05:45:32;19.40;94.50
19261;DHT22;9764;48.114;11.670;2023-11-21T05:48:00;19.40;94.40
19261;DHT22;9764;48.114;11.670;2023-11-21T05:50:29;19.40;94.50
19261;DHT22;9764;48.114;11.670;2023-11-21T05:52:59;19.40;94.40
19261;DHT22;9764;48.114;11.670;2023-11-21T05:55:28;19.40;94.40
19261;DHT22;9764;48.114;11.670;2023-11-21T05:57:56;19.40;94.40
19261;DHT22;9764;48.114;11.670;2023-11-21T06:00:25;19.40;94.40
19261;DHT22;9764;48.114;11.670;2023-11-21T06:02:54;19.40;94.40
19261;DHT22;9764;48.114;11.670;2023-11-21T06:05:25;19.40;94.50
19261;DHT22;9764;48.114;11.670;2023-11-21T06:07:55;19.40;94.40
19261;DHT22;9764;48.114;11.670;2023-11-21T06:10:27;19.40;94.40
19261;DHT22;9764;48.114;11.670;2023-11-21T06:12:56;19.40;94.40
19261;DHT22;9764;48.114;11.670;2023-11-21T06:15:29;19.40;94.40
19261;DHT22;9764;48.114;11.670;2023-11-21T06:17:58;19.40;94.40
19261;DHT22;9764;48.114;11.670;2023-11-21T06:20:26;19.40;94.40
19261;DHT22;9764;48.114;11.670;2023-11-21T06:22:54;19.40;94.40
19261;DHT22;9764;48.114;11.670;2023-11-21T06:25:23;19.40;94.40
19261;DHT22;9764;48.114;11.670;2023-11-21T06:27:52;19.40;94.40
19261;DHT22;9764;48.114;11.670;2023-11-21T06:30:21;19.40;94.40
19261;DHT22;9764;48.114;11.670;2023-11-21T06:32:50;19.40;94.40
19261;DHT22;9764;48.114;11.670;2023-11-21T06:35:19;19.40;94.30
19261;DHT22;9764;48.114;11.670;2023-11-21T06:37:47;19.40;94.30
19261;DHT22;9764;48.114;11.670;2023-11-21T06:40:17;19.40;94.30
19261;DHT22;9764;48.114;11.670;2023-11-21T06:42:47;19.40;94.30
19261;DHT22;9764;48.114;11.670;2023-11-21T06:45:17;19.40;94.30
19261;DHT22;9764;48.114;11.670;2023-11-21T06:47:47;19.40;94.30
19261;DHT22;9764;48.114;11.670;2023-11-21T06:50:16;19.40;94.30
19261;DHT22;9764;48.114;11.670;2023-11-21T06:52:44;19.40;94.30
19261;DHT22;9764;48.114;11.670;2023-11-21T06:55:12;19.40;94.30
19261;DHT22;9764;48.114;11.670;2023-11-21T06:57:41;19.40;94.30
19261;DHT22;9764;48.114;11.670;2023-11-21T07:00:10;19.40;94.30
19261;DHT22;9764;48.114;11.670;2023-11-21T07:02:40;19.40;94.30
19261;DHT22;9764;48.114;11.670;2023-11-21T07:05:09;19.40;94.30
19261;DHT22;9764;48.114;11.670;2023-11-21T07:07:38;19.40;94.30
19261;DHT22;9764;48.114;11.670;2023-11-21T07:10:07;19.40;94.30
19261;DHT22;9764;48.114;11.670;2023-11-21T07:12:36;19.40;94.30
19261;DHT22;9764;48.114;11.670;2023-11-21T07:15:05;19.40;94.30
19261;DHT22;9764;48.114;11.670;2023-11-21T07:17:36;19.40;94.30
19261;DHT22;9764;48.114;11.670;2023-11-21T07:20:10;19.40;94.30
19261;DHT22;9764;48.114;11.670;2023-11-21T07:22:39;19.40;94.20
19261;DHT22;9764;48.114;11.670;2023-11-21T07:25:07;19.50;94.30
19261;DHT22;9764;48.114;11.670;2023-11-21T07:27:37;19.50;94.30
19261;DHT22;9764;48.114;11.670;2023-11-21T07:30:06;19.40;94.20
19261;DHT22;9764;48.114;11.670;2023-11-21T07:32:36;19.50;94.30
19261;DHT22;9764;48.114;11.670;2023-11-21T07:35:09;19.50;94.30
19261;DHT22;9764;48.114;11.670;2023-11-21T07:37:37;19.50;94.20
19261;DHT22;9764;48.114;11.670;2023-11-21T07:40:07;19.50;94.20
19261;DHT22;9764;48.114;11.670;2023-11-21T07:42:37;19.50;94.20
19261;DHT22;9764;48.114;11.670;2023-11-21T07:45:06;19.50;94.20
19261;DHT22;9764;48.114;11.670;2023-11-21T07:47:38;19.50;94.20
19261;DHT22;9764;48.114;11.670;2023-11-21T07:50:10;19.50;94.20
19261;DHT22;9764;48.114;11.670;2023-11-21T07:52:40;19.50;94.20
19261;DHT22;9764;48.114;11.670;2023-11-21T07:55:08;19.50;94.20
19261;DHT22;9764;48.114;11.670;2023-11-21T07:57:38;19.50;94.20
19261;DHT22;9764;48.114;11.670;2023-11-21T08:00:07;19.50;94.20
19261;DHT22;9764;48.114;11.670;2023-11-21T08:02:39;19.50;94.20
19261;DHT22;9764;48.114;11.670;2023-11-21T08:05:10;19.50;94.20
19261;DHT22;9764;48.114;11.670;2023-11-21T08:07:51;19.50;94.20
19261;DHT22;9764;48.114;11.670;2023-11-21T08:10:18;19.50;94.20
19261;DHT22;9764;48.114;11.670;2023-11-21T08:12:48;19.50;94.20
19261;DHT22;9764;48.114;11.670;2023-11-21T08:15:17;19.50;94.10
19261;DHT22;9764;48.114;11.670;2023-11-21T08:17:46;19.50;94.10
19261;DHT22;9764;48.114;11.670;2023-11-21T08:20:16;19.50;94.10
19261;DHT22;9764;48.114;11.670;2023-11-21T08:22:45;19.50;94.10
19261;DHT22;9764;48.114;11.670;2023-11-21T08:25:14;19.50;94.10
19261;DHT22;9764;48.114;11.670;2023-11-21T08:27:44;19.50;94.10
19261;DHT22;9764;48.114;11.670;2023-11-21T08:30:12;19.50;94.10
19261;DHT22;9764;48.114;11.670;2023-11-21T08:32:41;19.50;94.10
19261;DHT22;9764;48.114;11.670;2023-11-21T08:35:10;19.50;94.10
19261;DHT22;9764;48.114;11.670;2023-11-21T08:37:40;19.50;94.10
19261;DHT22;9764;48.114;11.670;2023-11-21T08:40:09;19.50;94.10
19261;DHT22;9764;48.114;11.670;2023-11-21T08:42:39;19.50;94.10
19261;DHT22;9764;48.114;11.670;2023-11-21T08:45:08;19.50;94.10
19261;DHT22;9764;48.114;11.670;2023-11-21T08:47:36;19.50;94.10
19261;DHT22;9764;48.114;11.670;2023-11-21T08:50:06;19.50;94.10
19261;DHT22;9764;48.114;11.670;2023-11-21T08:52:34;19.50;94.10
19261;DHT22;9764;48.114;11.670;2023-11-21T08:55:06;19.50;94.10
19261;DHT22;9764;48.114;11.670;2023-11-21T08:57:35;19.60;94.10
19261;DHT22;9764;48.114;11.670;2023-11-21T09:00:05;19.50;94.00
19261;DHT22;9764;48.114;11.670;2023-11-21T09:02:37;19.60;94.00
19261;DHT22;9764;48.114;11.670;2023-11-21T09:05:06;19.50;94.00
19261;DHT22;9764;48.114;11.670;2023-11-21T09:07:36;19.50;94.00
19261;DHT22;9764;48.114;11.670;2023-11-21T09:10:06;19.50;94.00
19261;DHT22;9764;48.114;11.670;2023-11-21T09:12:37;19.60;94.00
19261;DHT22;9764;48.114;11.670;2023-11-21T09:15:06;19.60;94.00
19261;DHT22;9764;48.114;11.670;2023-11-21T09:17:36;19.60;94.00
19261;DHT22;9764;48.114;11.670;2023-11-21T09:20:06;19.60;94.00
19261;DHT22;9764;48.114;11.670;2023-11-21T09:22:37;19.60;94.00
19261;DHT22;9764;48.114;11.670;2023-11-21T09:25:07;19.60;94.00
19261;DHT22;9764;48.114;11.670;2023-11-21T09:27:36;19.60;94.00
19261;DHT22;9764;48.114;11.670;2023-11-21T09:30:05;19.60;94.00
19261;DHT22;9764;48.114;11.670;2023-11-21T09:32:37;19.60;94.00
19261;DHT22;9764;48.114;11.670;2023-11-21T09:35:08;19.60;93.90
19261;DHT22;9764;48.114;11.670;2023-11-21T09:37:37;19.60;93.90
19261;DHT22;9764;48.114;11.670;2023-11-21T09:40:10;19.60;93.90
19261;DHT22;9764;48.114;11.670;2023-11-21T09:42:46;19.60;93.90
19261;DHT22;9764;48.114;11.670;2023-11-21T09:45:21;19.60;93.90
19261;DHT22;9764;48.114;11.670;2023-11-21T09:47:52;19.60;93.90
19261;DHT22;9764;48.114;11.670;2023-11-21T09:50:21;19.60;93.90
19261;DHT22;9764;48.114;11.670;2023-11-21T09:52:55;19.60;93.90
19261;DHT22;9764;48.114;11.670;2023-11-21T09:55:27;19.70;93.90
19261;DHT22;9764;48.114;11.670;2023-11-21T09:57:57;19.70;93.90
19261;DHT22;9764;48.114;11.670;2023-11-21T10:00:25;19.70;93.90
19261;DHT22;9764;48.114;11.670;2023-11-21T10:02:56;19.70;93.90
19261;DHT22;9764;48.114;11.670;2023-11-21T10:05:26;19.70;93.80
19261;DHT22;9764;48.114;11.670;2023-11-21T10:07:56;19.70;93.80
19261;DHT22;9764;48.114;11.670;2023-11-21T10:10:27;19.70;93.80
19261;DHT22;9764;48.114;11.670;2023-11-21T10:13:01;19.70;93.80
19261;DHT22;9764;48.114;11.670;2023-11-21T10:15:33;19.70;93.80
19261;DHT22;9764;48.114;11.670;2023-11-21T10:18:03;19.70;93.80
19261;DHT22;9764;48.114;11.670;2023-11-21T10:20:33;19.70;93.80
19261;DHT22;9764;48.114;11.670;2023-11-21T10:23:01;19.70;93.80
19261;DHT22;9764;48.114;11.670;2023-11-21T10:25:32;19.70;93.80
19261;DHT22;9764;48.114;11.670;2023-11-21T10:28:03;19.70;93.80
19261;DHT22;9764;48.114;11.670;2023-11-21T10:30:34;19.70;93.80
19261;DHT22;9764;48.114;11.670;2023-11-21T10:33:05;19.70;93.80
19261;DHT22;9764;48.114;11.670;2023-11-21T10:35:43;19.70;93.90
19261;DHT22;9764;48.114;11.670;2023-11-21T10:38:14;19.70;93.80
19261;DHT22;9764;48.114;11.670;2023-11-21T10:40:44;19.70;93.80
19261;DHT22;9764;48.114;11.670;2023-11-21T10:43:14;19.80;93.90
19261;DHT22;9764;48.114;11.670;2023-11-21T10:45:43;19.70;93.80
19261;DHT22;9764;48.114;11.670;2023-11-21T10:48:13;19.70;93.80
19261;DHT22;9764;48.114;11.670;2023-11-21T10:50:43;19.70;93.80
19261;DHT22;9764;48.114;11.670;2023-11-21T10:53:11;19.70;93.80
19261;DHT22;9764;48.114;11.670;2023-11-21T10:55:40;19.80;93.90
19261;DHT22;9764;48.114;11.670;2023-11-21T10:58:11;19.80;93.90
19261;DHT22;9764;48.114;11.670;2023-11-21T11:00:41;19.80;93.80
19261;DHT22;9764;48.114;11.670;2023-11-21T11:03:12;19.80;93.90
19261;DHT22;9764;48.114;11.670;2023-11-21T11:05:44;19.70;93.80
19261;DHT22;9764;48.114;11.670;2023-11-21T11:08:21;19.80;93.90
19261;DHT22;9764;48.114;11.670;2023-11-21T11:10:54;19.80;93.90
19261;DHT22;9764;48.114;11.670;2023-11-21T11:13:24;19.80;93.80
19261;DHT22;9764;48.114;11.670;2023-11-21T11:15:58;19.80;93.80
19261;DHT22;9764;48.114;11.670;2023-11-21T11:18:28;19.80;93.80
19261;DHT22;9764;48.114;11.670;2023-11-21T11:21:05;19.80;93.80
19261;DHT22;9764;48.114;11.670;2023-11-21T11:23:46;19.80;93.80
19261;DHT22;9764;48.114;11.670;2023-11-21T11:26:26;19.80;93.80
19261;DHT22;9764;48.114;11.670;2023-11-21T11:29:03;19.80;93.80
19261;DHT22;9764;48.114;11.670;2023-11-21T11:31:40;19.80;93.80
19261;DHT22;9764;48.114;11.670;2023-11-21T11:34:20;19.80;93.80
19261;DHT22;9764;48.114;11.670;2023-11-21T11:36:56;19.80;93.80
19261;DHT22;9764;48.114;11.670;2023-11-21T11:39:29;19.80;93.80
19261;DHT22;9764;48.114;11.670;2023-11-21T11:42:01;19.80;93.80
19261;DHT22;9764;48.114;11.670;2023-11-21T11:44:51;19.80;93.80
19261;DHT22;9764;48.114;11.670;2023-11-21T11:47:23;19.80;93.70
19261;DHT22;9764;48.114;11.670;2023-11-21T11:50:06;19.80;93.80
19261;DHT22;9764;48.114;11.670;2023-11-21T11:52:39;19.80;93.80
19261;DHT22;9764;48.114;11.670;2023-11-21T11:55:10;19.80;94.10
19261;DHT22;9764;48.114;11.670;2023-11-21T11:57:40;19.80;93.80
19261;DHT22;9764;48.114;11.670;2023-11-21T12:00:14;19.80;93.80
19261;DHT22;9764;48.114;11.670;2023-11-21T12:02:53;19.80;93.80
19261;DHT22;9764;48.114;11.670;2023-11-21T12:05:24;19.80;93.80
19261;DHT22;9764;48.114;11.670;2023-11-21T12:07:55;19.80;93.80
19261;DHT22;9764;48.114;11.670;2023-11-21T12:10:25;19.80;93.80
19261;DHT22;9764;48.114;11.670;2023-11-21T12:12:56;19.80;93.80
19261;DHT22;9764;48.114;11.670;2023-11-21T12:15:26;19.80;93.80
19261;DHT22;9764;48.114;11.670;2023-11-21T12:17:56;19.80;93.80
19261;DHT22;9764;48.114;11.670;2023-11-21T12:20:26;19.80;93.90
19261;DHT22;9764;48.114;11.670;2023-11-21T12:22:56;19.80;93.90
19261;DHT22;9764;48.114;11.670;2023-11-21T12:25:27;19.80;94.20
19261;DHT22;9764;48.114;11.670;2023-11-21T12:27:57;19.80;93.90
19261;DHT22;9764;48.114;11.670;2023-11-21T12:30:28;19.80;93.90
19261;DHT22;9764;48.114;11.670;2023-11-21T12:32:58;19.80;93.90
19261;DHT22;9764;48.114;11.670;2023-11-21T12:35:29;19.70;93.90
19261;DHT22;9764;48.114;11.670;2023-11-21T12:37:57;19.80;93.90
19261;DHT22;9764;48.114;11.670;2023-11-21T12:40:26;19.80;93.90
19261;DHT22;9764;48.114;11.670;2023-11-21T12:42:57;19.80;93.80
19261;DHT22;9764;48.114;11.670;2023-11-21T12:45:28;19.70;93.90
19261;DHT22;9764;48.114;11.670;2023-11-21T12:48:00;19.80;93.90
19261;DHT22;9764;48.114;11.670;2023-11-21T12:50:36;19.70;93.90
19261;DHT22;9764;48.114;11.670;2023-11-21T12:53:06;19.80;93.90
19261;DHT22;9764;48.114;11.670;2023-11-21T12:55:36;19.80;93.90
19261;DHT22;9764;48.114;11.670;2023-11-21T12:58:06;19.80;93.80
19261;DHT22;9764;48.114;11.670;2023-11-21T13:00:45;19.80;93.90
19261;DHT22;9764;48.114;11.670;2023-11-21T13:03:15;19.80;94.00
19261;DHT22;9764;48.114;11.670;2023-11-21T13:05:48;19.80;93.90
19261;DHT22;9764;48.114;11.670;2023-11-21T13:08:20;19.80;93.80
19261;DHT22;9764;48.114;11.670;2023-11-21T13:10:51;19.80;93.90
19261;DHT22;9764;48.114;11.670;2023-11-21T13:13:21;19.80;93.90
19261;DHT22;9764;48.114;11.670;2023-11-21T13:15:53;19.80;94.00
19261;DHT22;9764;48.114;11.670;2023-11-21T13:18:24;19.80;94.10
19261;DHT22;9764;48.114;11.670;2023-11-21T13:20:54;19.90;94.00
19261;DHT22;9764;48.114;11.670;2023-11-21T13:23:23;19.80;93.90
19261;DHT22;9764;48.114;11.670;2023-11-21T13:25:51;19.80;93.90
19261;DHT22;9764;48.114;11.670;2023-11-21T13:28:30;19.80;93.90
19261;DHT22;9764;48.114;11.670;2023-11-21T13:31:02;19.80;93.90
19261;DHT22;9764;48.114;11.670;2023-11-21T13:33:40;19.80;93.90
19261;DHT22;9764;48.114;11.670;2023-11-21T13:36:10;19.80;93.90
19261;DHT22;9764;48.114;11.670;2023-11-21T13:38:41;19.80;93.90
19261;DHT22;9764;48.114;11.670;2023-11-21T13:41:11;19.80;93.90
19261;DHT22;9764;48.114;11.670;2023-11-21T13:43:41;19.80;93.90
19261;DHT22;9764;48.114;11.670;2023-11-21T13:46:18;19.80;93.90
19261;DHT22;9764;48.114;11.670;2023-11-21T13:48:50;19.80;93.90
19261;DHT22;9764;48.114;11.670;2023-11-21T13:51:23;19.80;93.90
19261;DHT22;9764;48.114;11.670;2023-11-21T13:54:01;19.80;94.30
19261;DHT22;9764;48.114;11.670;2023-11-21T13:56:29;19.80;93.90
19261;DHT22;9764;48.114;11.670;2023-11-21T13:58:58;19.80;93.90
19261;DHT22;9764;48.114;11.670;2023-11-21T14:01:37;19.80;93.90
19261;DHT22;9764;48.114;11.670;2023-11-21T14:04:21;19.80;93.90
19261;DHT22;9764;48.114;11.670;2023-11-21T14:07:05;19.80;93.90
19261;DHT22;9764;48.114;11.670;2023-11-21T14:09:49;19.80;93.90
19261;DHT22;9764;48.114;11.670;2023-11-21T14:12:19;19.80;93.90
19261;DHT22;9764;48.114;11.670;2023-11-21T14:14:48;19.80;94.30
19261;DHT22;9764;48.114;11.670;2023-11-21T14:17:17;19.80;93.90
19261;DHT22;9764;48.114;11.670;2023-11-21T14:19:49;19.80;93.90
19261;DHT22;9764;48.114;11.670;2023-11-21T14:22:18;19.80;93.90
19261;DHT22;9764;48.114;11.670;2023-11-21T14:24:47;19.80;93.90
19261;DHT22;9764;48.114;11.670;2023-11-21T14:27:17;19.80;93.90
19261;DHT22;9764;48.114;11.670;2023-11-21T14:29:46;19.80;93.90
19261;DHT22;9764;48.114;11.670;2023-11-21T14:32:14;19.80;93.90
19261;DHT22;9764;48.114;11.670;2023-11-21T14:34:44;19.80;93.90
19261;DHT22;9764;48.114;11.670;2023-11-21T14:37:14;19.80;94.00
19261;DHT22;9764;48.114;11.670;2023-11-21T14:39:42;19.80;94.00
19261;DHT22;9764;48.114;11.670;2023-11-21T14:42:13;19.80;93.90
19261;DHT22;9764;48.114;11.670;2023-11-21T14:44:43;19.80;94.00
19261;DHT22;9764;48.114;11.670;2023-11-21T14:47:11;19.80;94.00
19261;DHT22;9764;48.114;11.670;2023-11-21T14:49:45;19.80;93.90
19261;DHT22;9764;48.114;11.670;2023-11-21T14:52:20;19.70;94.00
19261;DHT22;9764;48.114;11.670;2023-11-21T14:55:03;19.80;94.00
19261;DHT22;9764;48.114;11.670;2023-11-21T14:57:48;19.70;94.00
19261;DHT22;9764;48.114;11.670;2023-11-21T15:00:17;19.70;94.00
19261;DHT22;9764;48.114;11.670;2023-11-21T15:03:08;19.70;94.00
19261;DHT22;9764;48.114;11.670;2023-11-21T15:05:38;19.70;94.00
19261;DHT22;9764;48.114;11.670;2023-11-21T15:08:07;19.80;94.00
19261;DHT22;9764;48.114;11.670;2023-11-21T15:10:48;19.80;94.10
19261;DHT22;9764;48.114;11.670;2023-11-21T15:13:21;19.70;94.00
19261;DHT22;9764;48.114;11.670;2023-11-21T15:15:50;19.80;94.10
19261;DHT22;9764;48.114;11.670;2023-11-21T15:18:21;19.80;94.10
19261;DHT22;9764;48.114;11.670;2023-11-21T15:20:50;19.70;94.10
19261;DHT22;9764;48.114;11.670;2023-11-21T15:23:19;19.70;94.00
19261;DHT22;9764;48.114;11.670;2023-11-21T15:25:47;19.70;94.00
19261;DHT22;9764;48.114;11.670;2023-11-21T15:28:15;19.80;94.10
19261;DHT22;9764;48.114;11.670;2023-11-21T15:30:44;19.70;94.10
19261;DHT22;9764;48.114;11.670;2023-11-21T15:33:15;19.70;94.10
19261;DHT22;9764;48.114;11.670;2023-11-21T15:35:43;19.80;94.10
19261;DHT22;9764;48.114;11.670;2023-11-21T15:38:13;19.70;94.10
19261;DHT22;9764;48.114;11.670;2023-11-21T15:40:41;19.70;94.10
19261;DHT22;9764;48.114;11.670;2023-11-21T15:43:10;19.70;94.10
19261;DHT22;9764;48.114;11.670;2023-11-21T15:45:39;19.70;94.10
19261;DHT22;9764;48.114;11.670;2023-11-21T15:48:07;19.70;94.10